Latest Coastal Weather Observations for Cape Jaffa

IDS60701

Issued at 12:01 am CST Monday 15 April 2024 (issued every 10 minutes, with the page automatically refreshed every 10 minutes)

About coastal observations | Map of coastal stations | Coastal observations for SA | Marine services | Other Formats
Station Details ID: 026095 Name: THE LIMESTONE Lat: -36.97 Lon: 139.72 Height: 17.0 m
Data from the previous 72 hours. | See also: Recent months at Cape Jaffa
Date/Time
CST
Wind Sea
Height
m
Swell Vis
km
Cloud Weather Temp
°C
Press
MSL
hPa
Rain since
9am
mm
Dir  Spd
kts
Gust
kts
Height
m
Period
s
Dir
15/12:00am WNW 1 2 - - - - - - - 10.9 1024.1 0.0
 
Date/Time
CST
Wind Sea
Height
m
Swell Vis
km
Cloud Weather Temp
°C
Press
MSL
hPa
Rain since
9am
mm
Dir  Spd
kts
Gust
kts
Height
m
Period
s
Dir
14/11:30pm WNW 2 3 - - - - - - - 11.6 1024.2 0.0
14/11:00pm WNW 3 3 - - - - - - - 11.4 1024.4 0.0
14/10:30pm W 2 3 - - - - - - - 12.3 1024.5 0.0
14/10:00pm W 2 3 - - - - - - - 12.3 1024.6 0.0
14/09:30pm W 2 3 - - - - - - - 12.1 1024.5 0.0
14/09:00pm W 2 3 - - - - - - - 12.3 1024.4 0.0
14/08:30pm W 2 3 - - - - - - - 12.4 1024.4 0.0
14/08:00pm W 3 3 - - - - - - - 12.6 1024.3 0.0
14/07:30pm W 2 3 - - - - - - - 12.8 1024.3 0.0
14/07:00pm WSW 3 3 - - - - - - - 12.8 1024.0 0.0
14/06:30pm W 3 3 - - - - - - - 13.1 1023.8 0.0
14/06:00pm WNW 3 3 - - - - - - - 14.0 1023.6 0.0
14/05:30pm WNW 4 4 - - - - - - - 14.5 1023.4 0.0
14/05:00pm WNW 3 4 - - - - - - - 16.0 1023.2 0.0
14/04:30pm W 5 7 - - - - - - - 16.1 1023.1 0.0
14/04:00pm W 5 8 - - - - - - - 16.1 1023.2 0.0
14/03:30pm W 5 8 - - - - - - - 16.1 1023.3 0.0
14/03:00pm WNW 6 8 - - - - - - - 15.8 1023.3 0.0
14/02:30pm W 6 9 - - - - - - - 15.6 1023.2 0.0
14/02:00pm W 7 10 - - - - - - - 15.7 1023.3 0.0
14/01:30pm W 7 12 - - - - - - - 16.2 1023.2 0.0
14/01:00pm NW 7 11 - - - - - - - 16.4 1023.5 0.0
14/12:30pm NNW 9 13 - - - - - - - 16.6 1023.6 0.0
14/12:00pm NNW 7 10 - - - - - - - 17.2 1024.0 0.0
14/11:30am N 6 9 - - - - - - - 16.3 1024.3 0.0
14/11:00am N 7 10 - - - - - - - 15.5 1024.4 0.0
14/10:30am N 6 8 - - - - - - - 15.4 1024.5 0.0
14/10:00am N 5 7 - - - - - - - 15.0 1024.6 0.0
14/09:30am N 6 8 - - - - - - - 14.2 1024.8 0.0
14/09:00am NNE 5 7 - - - - - - - 13.9 1024.8 0.2
14/08:30am ENE 2 3 - - - - - - - 12.3 1024.8 0.2
14/08:00am ENE 3 3 - - - - - - - 10.7 1024.6 0.2
14/07:30am ENE 1 3 - - - - - - - 9.3 1024.4 0.2
14/07:00am ENE 3 4 - - - - - - - 7.7 1024.1 0.2
14/06:30am ENE 3 4 - - - - - - - 7.4 1023.9 0.2
14/06:00am ENE 5 6 - - - - - - - 7.5 1023.7 0.2
14/05:30am ENE 4 5 - - - - - - - 7.9 1023.6 0.2
14/05:00am WSW 3 3 - - - - - - - 8.2 1023.5 0.2
14/04:30am WSW 2 3 - - - - - - - 9.1 1023.4 0.2
14/04:00am CALM 0 0 - - - - - - - 8.9 1023.2 0.0
14/03:30am CALM 0 0 - - - - - - - 9.3 1023.5 0.0
14/03:00am CALM 0 0 - - - - - - - 9.3 1023.5 0.0
14/02:30am CALM 0 0 - - - - - - - 9.3 1023.6 0.0
14/02:00am CALM 0 0 - - - - - - - 10.6 1023.9 0.0
14/01:30am CALM 0 0 - - - - - - - 10.4 1024.0 0.0
14/01:00am CALM 0 0 - - - - - - - 11.8 1023.9 0.0
14/12:30am WSW 1 1 - - - - - - - 11.3 1023.9 0.0
14/12:00am CALM 0 0 - - - - - - - 10.7 1024.0 0.0
 
Date/Time
CST
Wind Sea
Height
m
Swell Vis
km
Cloud Weather Temp
°C
Press
MSL
hPa
Rain since
9am
mm
Dir  Spd
kts
Gust
kts
Height
m
Period
s
Dir
13/11:30pm CALM 0 0 - - - - - - - 11.9 1024.1 0.0
13/11:00pm CALM 0 0 - - - - - - - 11.9 1024.4 0.0
13/10:30pm CALM 0 0 - - - - - - - 11.8 1024.6 0.0
13/10:00pm CALM 0 0 - - - - - - - 11.1 1024.7 0.0
13/09:30pm WSW 1 2 - - - - - - - 11.8 1024.8 0.0
13/09:00pm WSW 3 3 - - - - - - - 11.8 1024.8 0.0
13/08:30pm WSW 3 3 - - - - - - - 12.0 1024.7 0.0
13/08:00pm WSW 1 2 - - - - - - - 12.5 1024.5 0.0
13/07:30pm WSW 4 5 - - - - - - - 12.6 1024.4 0.0
13/07:00pm WSW 5 6 - - - - - - - 12.8 1024.2 0.0
13/06:30pm WSW 5 6 - - - - - - - 13.0 1024.1 0.0
13/06:00pm W 5 7 - - - - - - - 13.5 1024.0 0.0
13/05:30pm W 7 8 - - - - - - - 14.9 1023.8 0.0
13/05:00pm W 8 10 - - - - - - - 15.1 1023.6 0.0
13/04:30pm WSW 10 13 - - - - - - - 15.6 1023.7 0.0
13/04:00pm W 10 12 - - - - - - - 16.3 1023.6 0.0
13/03:30pm WSW 10 12 - - - - - - - 16.5 1023.7 0.0
13/03:00pm WSW 9 13 - - - - - - - 16.9 1023.8 0.0
13/02:30pm W 10 13 - - - - - - - 17.1 1023.9 0.0
13/02:00pm W 8 12 - - - - - - - 17.2 1024.0 0.0
13/01:30pm WSW 10 13 - - - - - - - 17.0 1024.1 0.0
13/01:00pm WSW 8 12 - - - - - - - 16.9 1024.4 0.0
13/12:30pm WSW 7 9 - - - - - - - 16.8 1024.7 0.0
13/12:00pm WSW 3 6 - - - - - - - 16.9 1024.9 0.0
13/11:30am WSW 3 6 - - - - - - - 16.8 1025.3 0.0
13/11:00am WSW 3 5 - - - - - - - 16.3 1025.3 0.0
13/10:30am ESE 2 4 - - - - - - - 15.8 1025.2 0.0
13/10:00am ENE 2 4 - - - - - - - 15.0 1025.3 0.0
13/09:30am N 2 3 - - - - - - - 14.2 1025.5 0.0
13/09:00am CALM 0 0 - - - - - - - 14.0 1025.5 0.4
13/08:30am E 1 3 - - - - - - - 13.3 1025.2 0.4
13/08:00am E 1 2 - - - - - - - 12.6 1024.8 0.4
13/07:30am ESE 3 3 - - - - - - - 11.8 1024.5 0.4
13/07:00am SSW 3 3 - - - - - - - 11.4 1024.2 0.4
13/06:30am CALM 0 0 - - - - - - - 11.8 1024.0 0.4
13/06:00am CALM 0 0 - - - - - - Recent precip. 11.5 1023.9 0.4
13/05:30am CALM 0 0 - - - - - - - 10.5 1023.9 0.2
13/05:00am CALM 0 0 - - - - - - - 11.9 1023.7 0.2
13/04:30am SW 1 1 - - - - - - - 10.5 1023.5 0.2
13/04:00am SW 2 3 - - - - - - - 11.5 1023.2 0.2
13/03:30am SW 2 3 - - - - - - - 11.2 1023.2 0.2
13/03:00am SW 2 4 - - - - - - - 11.6 1023.2 0.2
13/02:30am SW 3 4 - - - - - - - 12.3 1023.4 0.2
13/02:00am WSW 4 5 - - - - - - - 12.2 1023.6 0.2
13/01:30am WSW 9 11 - - - - - - - 13.1 1023.8 0.2
13/01:00am W 4 7 - - - - - - - 13.3 1023.7 0.2
13/12:30am WNW 4 6 - - - - - - - 13.3 1023.7 0.2
13/12:00am NW 4 5 - - - - - - Rain 13.2 1023.7 0.2
 
Date/Time
CST
Wind Sea
Height
m
Swell Vis
km
Cloud Weather Temp
°C
Press
MSL
hPa
Rain since
9am
mm
Dir  Spd
kts
Gust
kts
Height
m
Period
s
Dir
12/11:30pm WNW 4 6 - - - - - - - 13.1 1023.7 0.0
12/11:00pm W 4 5 - - - - - - - 13.2 1023.8 0.0
12/10:30pm WSW 4 5 - - - - - - - 12.7 1023.9 0.0
12/10:00pm W 4 9 - - - - - - - 11.9 1024.1 0.0
12/09:30pm W 2 3 - - - - - - - 12.4 1023.9 0.0
12/09:00pm WSW 3 4 - - - - - - - 13.2 1023.9 0.0
12/08:30pm WSW 3 3 - - - - - - - 13.0 1023.8 0.0
12/08:00pm SW 1 1 - - - - - - - 12.7 1023.7 0.0
12/07:30pm WSW 3 4 - - - - - - - 12.1 1023.7 0.0
12/07:00pm W 2 3 - - - - - - - 12.6 1023.6 0.0
12/06:30pm W 3 3 - - - - - - - 13.0 1023.3 0.0
12/06:00pm W 3 4 - - - - - - - 13.4 1023.0 0.0
12/05:30pm WSW 5 6 - - - - - - - 14.9 1022.9 0.0
12/05:00pm WSW 6 8 - - - - - - - 15.7 1022.7 0.0
12/04:30pm WSW 7 10 - - - - - - - 16.0 1022.6 0.0
12/04:00pm SW 6 9 - - - - - - - 16.3 1022.6 0.0
12/03:30pm SW 7 9 - - - - - - - 16.1 1022.7 0.0
12/03:00pm SW 8 12 - - - - - - - 16.5 1022.8 0.0
12/02:30pm WSW 7 10 - - - - - - - 16.4 1022.7 0.0
12/02:00pm W 9 11 - - - - - - - 16.5 1023.0 0.0
12/01:30pm WSW 9 13 - - - - - - - 14.8 1023.4 0.0
12/01:00pm W 7 12 - - - - - - - 16.6 1023.6 0.0
12/12:30pm W 8 11 - - - - - - - 15.9 1024.3 0.0
12/12:00pm W 8 14 - - - - - - - 15.5 1024.7 0.0
12/11:30am W 11 15 - - - - - - - 16.0 1024.9 0.0
12/11:00am WNW 8 14 - - - - - - - 16.7 1025.1 0.0
12/10:30am NNW 7 11 - - - - - - - 16.9 1025.1 0.0
12/10:00am NW 7 10 - - - - - - - 16.3 1025.3 0.0
12/09:30am W 7 11 - - - - - - - 16.0 1025.3 0.0
12/09:00am WSW 7 10 - - - - - - - 15.0 1025.4 0.0
12/08:30am WNW 4 5 - - - - - - - 15.0 1025.3 0.0
12/08:00am W 6 8 - - - - - - - 13.9 1025.2 0.0
12/07:30am SSW 4 7 - - - - - - - 13.2 1024.7 0.0
12/07:00am SSW 6 7 - - - - - - - 12.8 1024.1 0.0
12/06:30am SSW 5 6 - - - - - - - 12.4 1023.8 0.0
12/06:00am SW 4 5 - - - - - - - 13.1 1023.7 0.0
12/05:30am SW 7 9 - - - - - - - 13.0 1023.6 0.0
12/05:00am SW 8 10 - - - - - - - 13.3 1023.5 0.0
12/04:30am WSW 5 6 - - - - - - - 13.9 1023.4 0.0
12/04:00am WSW 3 5 - - - - - - - 13.9 1023.3 0.0
12/03:30am S 2 4 - - - - - - - 14.1 1023.2 0.0
12/03:00am S 2 3 - - - - - - - 14.2 1023.4 0.0
12/02:30am WSW 3 5 - - - - - - - 14.2 1023.8 0.0
12/02:00am SSW 2 5 - - - - - - - 14.1 1024.1 0.0
12/01:30am S 5 8 - - - - - - - 14.5 1024.2 0.0
12/01:00am WSW 5 8 - - - - - - - 14.4 1024.5 0.0
12/12:30am WSW 3 5 - - - - - - - 14.2 1024.5 0.0

Other formats

Comma delimited format used in spreadsheet applications
http://www.bom.gov.au/fwo/IDS60701/IDS60701.94813.axf

JavaScript Object Notation format (JSON) in row-major order
http://www.bom.gov.au/fwo/IDS60701/IDS60701.94813.json

Data quality

Most of these data are generated automatically and are frequently updated. Quality checks on data are not normally performed. It is possible for incorrect values to appear. Refer to information at About Latest Weather Observations and please check the disclaimer before using these data.